Time;durP1;ratioP1;P1;durP2;ratioP2;P2;SDS_P1;SDS_P2;PMS_P1;PMS_P2;Temp;Humidity;BMP_temperature;BMP_pressure;BME280_temperature;BME280_humidity;BME280_pressure;Samples;Min_cycle;Max_cycle;Signal;HPM_P1;HPM_P2
2022/10/26 00:00:36;;;;;;;;;;;23.50;57.60;;;;;;1517595;77;717;-60
2022/10/26 00:02:38;;;;;;;;;;;23.50;57.60;;;;;;1514622;77;801;-60
2022/10/26 00:04:40;;;;;;;;;;;23.50;57.60;;;;;;1518237;77;821;-60
2022/10/26 00:06:42;;;;;;;;;;;23.50;57.70;;;;;;1517443;77;1195;-59
2022/10/26 00:08:44;;;;;;;;;;;23.40;57.60;;;;;;1513734;77;913;-60
2022/10/26 00:10:46;;;;;;;;;;;23.50;57.80;;;;;;1517481;77;803;-58
2022/10/26 00:12:50;;;;;;;;;;;23.40;57.70;;;;;;1520011;78;1218;-60
2022/10/26 00:14:51;;;;;;;;;;;23.40;57.80;;;;;;1516761;77;1908;-57
2022/10/26 00:16:53;;;;;;;;;;;23.30;58.10;;;;;;1519651;77;1131;-57
2022/10/26 00:18:55;;;;;;;;;;;23.30;58.10;;;;;;1517202;77;809;-60
2022/10/26 00:20:59;;;;;;;;;;;23.30;58.50;;;;;;1514928;77;788;-59
2022/10/26 00:23:01;;;;;;;;;;;23.30;58.20;;;;;;1519049;77;1974;-59
2022/10/26 00:25:03;;;;;;;;;;;23.40;57.90;;;;;;1515748;77;726;-59
2022/10/26 00:27:05;;;;;;;;;;;23.50;57.90;;;;;;1517679;77;1600;-59
2022/10/26 00:29:06;;;;;;;;;;;23.50;57.80;;;;;;1517156;77;910;-57
2022/10/26 00:31:10;;;;;;;;;;;23.50;57.70;;;;;;1519000;77;804;-60
2022/10/26 00:33:12;;;;;;;;;;;23.50;57.70;;;;;;1520870;77;1969;-59
2022/10/26 00:35:14;;;;;;;;;;;23.50;57.70;;;;;;1519349;77;1944;-59
2022/10/26 00:37:16;;;;;;;;;;;23.50;57.70;;;;;;1514268;78;1135;-60
2022/10/26 00:39:18;;;;;;;;;;;23.50;57.90;;;;;;1516196;77;743;-59
2022/10/26 00:41:26;;;;;;;;;;;23.50;57.80;;;;;;1518030;77;1771;-56
2022/10/26 00:43:30;;;;;;;;;;;23.50;57.70;;;;;;1517296;77;795;-59
2022/10/26 00:45:32;;;;;;;;;;;23.50;57.60;;;;;;1514257;77;1148;-57
2022/10/26 00:47:35;;;;;;;;;;;23.50;57.70;;;;;;1514825;77;775;-60
2022/10/26 00:49:37;;;;;;;;;;;23.50;57.80;;;;;;1513760;77;1842;-60
2022/10/26 00:51:41;;;;;;;;;;;23.50;57.80;;;;;;1514551;77;774;-59
2022/10/26 00:53:43;;;;;;;;;;;23.50;57.60;;;;;;1519828;77;1946;-57
2022/10/26 00:55:45;;;;;;;;;;;23.40;57.70;;;;;;1516967;77;1145;-55
2022/10/26 00:57:47;;;;;;;;;;;23.40;57.80;;;;;;1507147;78;994;-59
2022/10/26 00:59:49;;;;;;;;;;;23.30;57.90;;;;;;1501843;78;845;-58
2022/10/26 01:01:51;;;;;;;;;;;23.30;58.10;;;;;;1477488;79;831;-56
2022/10/26 01:03:53;;;;;;;;;;;23.40;58.10;;;;;;1505959;78;777;-60
2022/10/26 01:05:55;;;;;;;;;;;23.40;58.00;;;;;;1505848;78;1198;-58
2022/10/26 01:07:57;;;;;;;;;;;23.50;58.00;;;;;;1502789;78;1535;-60
2022/10/26 01:09:59;;;;;;;;;;;23.50;57.80;;;;;;1488518;78;806;-57
2022/10/26 01:12:01;;;;;;;;;;;23.50;57.70;;;;;;1516572;78;785;-59
2022/10/26 01:14:03;;;;;;;;;;;23.50;57.70;;;;;;1500720;79;1934;-58
2022/10/26 01:16:06;;;;;;;;;;;23.60;57.60;;;;;;1503464;78;1186;-59
2022/10/26 01:18:16;;;;;;;;;;;23.60;57.60;;;;;;1506439;78;1903;-57
2022/10/26 01:20:36;;;;;;;;;;;23.50;57.60;;;;;;1500028;78;1798;-60
2022/10/26 01:22:56;;;;;;;;;;;23.50;57.60;;;;;;1504986;78;1566;-60
2022/10/26 01:25:15;;;;;;;;;;;23.50;58.00;;;;;;1498739;78;726;-60
2022/10/26 01:27:24;;;;;;;;;;;23.30;58.20;;;;;;1504764;79;1160;-58
2022/10/26 01:29:34;;;;;;;;;;;23.30;58.50;;;;;;1502147;78;982;-60
2022/10/26 01:31:37;;;;;;;;;;;23.30;58.80;;;;;;1511087;78;841;-59
2022/10/26 01:33:43;;;;;;;;;;;23.30;58.80;;;;;;1499400;78;1381;-60
2022/10/26 01:36:05;;;;;;;;;;;23.30;59.00;;;;;;1504846;78;1577;-60
2022/10/26 01:38:08;;;;;;;;;;;23.20;58.90;;;;;;1499646;78;1985;-59
2022/10/26 01:40:18;;;;;;;;;;;23.30;59.30;;;;;;1502505;78;721;-55
2022/10/26 01:42:20;;;;;;;;;;;23.30;58.80;;;;;;1501604;78;781;-60
2022/10/26 01:44:27;;;;;;;;;;;23.40;58.40;;;;;;1498728;78;806;-60
2022/10/26 01:46:31;;;;;;;;;;;23.50;58.20;;;;;;1501312;78;1127;-60
2022/10/26 01:48:33;;;;;;;;;;;23.60;58.10;;;;;;1488218;78;755;-59
2022/10/26 01:50:35;;;;;;;;;;;23.60;57.90;;;;;;1496657;78;1513;-57
2022/10/26 01:52:37;;;;;;;;;;;23.50;57.90;;;;;;1482565;79;723;-60
2022/10/26 01:54:38;;;;;;;;;;;23.60;57.80;;;;;;1494821;78;1926;-60
2022/10/26 01:56:41;;;;;;;;;;;23.50;57.90;;;;;;1499500;78;1152;-59
2022/10/26 01:58:45;;;;;;;;;;;23.50;58.00;;;;;;1506386;77;1133;-59
2022/10/26 02:00:48;;;;;;;;;;;23.50;57.90;;;;;;1521745;77;854;-60
2022/10/26 02:02:57;;;;;;;;;;;23.50;57.80;;;;;;1506840;77;1900;-59
2022/10/26 02:05:18;;;;;;;;;;;23.50;58.00;;;;;;1523715;77;1541;-57
2022/10/26 02:07:24;;;;;;;;;;;23.40;58.10;;;;;;1516934;77;1128;-59
2022/10/26 02:09:43;;;;;;;;;;;23.50;58.10;;;;;;1528005;77;772;-59
2022/10/26 02:11:48;;;;;;;;;;;23.50;57.90;;;;;;1519161;77;1892;-57
2022/10/26 02:13:52;;;;;;;;;;;23.50;57.80;;;;;;1509101;77;703;-59
2022/10/26 02:15:54;;;;;;;;;;;23.60;57.70;;;;;;1529426;77;1945;-60
2022/10/26 02:17:59;;;;;;;;;;;23.60;57.70;;;;;;1514556;77;1521;-59
2022/10/26 02:20:08;;;;;;;;;;;23.60;57.50;;;;;;1509143;77;804;-57
2022/10/26 02:22:14;;;;;;;;;;;23.60;57.40;;;;;;1507869;77;854;-59
2022/10/26 02:24:16;;;;;;;;;;;23.60;57.80;;;;;;1520807;77;697;-57
2022/10/26 02:26:19;;;;;;;;;;;23.50;58.00;;;;;;1515610;77;1166;-56
2022/10/26 02:28:23;;;;;;;;;;;23.50;58.10;;;;;;1511358;77;745;-59
2022/10/26 02:30:25;;;;;;;;;;;23.50;58.30;;;;;;1525686;77;1888;-57
2022/10/26 02:32:27;;;;;;;;;;;23.40;58.20;;;;;;1509754;77;1552;-58
2022/10/26 02:34:29;;;;;;;;;;;23.40;58.40;;;;;;1504626;77;1942;-58
2022/10/26 02:36:31;;;;;;;;;;;23.30;58.50;;;;;;1517674;77;1132;-57
2022/10/26 02:38:33;;;;;;;;;;;23.40;58.30;;;;;;1512645;77;763;-57
2022/10/26 02:40:35;;;;;;;;;;;23.40;58.10;;;;;;1517918;77;783;-55
2022/10/26 02:42:38;;;;;;;;;;;23.40;58.10;;;;;;1514289;77;671;-57
2022/10/26 02:44:41;;;;;;;;;;;23.30;58.20;;;;;;1503815;78;747;-58
2022/10/26 02:46:43;;;;;;;;;;;23.30;58.20;;;;;;1514964;77;1525;-55
2022/10/26 02:48:45;;;;;;;;;;;23.30;58.40;;;;;;1508659;77;829;-58
2022/10/26 02:50:49;;;;;;;;;;;23.30;58.50;;;;;;1519968;77;744;-58
2022/10/26 02:52:58;;;;;;;;;;;23.30;58.60;;;;;;1501440;77;946;-58
2022/10/26 02:55:02;;;;;;;;;;;23.20;58.60;;;;;;1476813;78;1952;-55
2022/10/26 02:57:05;;;;;;;;;;;23.20;58.70;;;;;;1489449;78;1148;-58
2022/10/26 02:59:07;;;;;;;;;;;23.20;58.80;;;;;;1509856;77;1791;-58
2022/10/26 03:01:09;;;;;;;;;;;23.20;58.80;;;;;;1575506;74;1577;-58
2022/10/26 03:03:11;;;;;;;;;;;23.20;58.90;;;;;;1562691;75;714;-58
2022/10/26 03:05:14;;;;;;;;;;;23.20;58.90;;;;;;1562136;75;783;-55
2022/10/26 03:07:20;;;;;;;;;;;23.10;58.90;;;;;;1558104;74;1839;-58
2022/10/26 03:09:22;;;;;;;;;;;23.20;58.90;;;;;;1557335;75;741;-57
2022/10/26 03:11:24;;;;;;;;;;;23.20;58.90;;;;;;1563721;75;779;-57
2022/10/26 03:13:26;;;;;;;;;;;23.10;58.80;;;;;;1566528;74;695;-58
2022/10/26 03:15:27;;;;;;;;;;;23.20;58.80;;;;;;1562139;75;1936;-55
2022/10/26 03:17:29;;;;;;;;;;;23.10;58.80;;;;;;1549265;75;727;-58
2022/10/26 03:19:31;;;;;;;;;;;23.10;58.80;;;;;;1564289;75;786;-58
2022/10/26 03:21:33;;;;;;;;;;;23.10;58.90;;;;;;1564588;74;722;-58
2022/10/26 03:23:35;;;;;;;;;;;23.10;59.00;;;;;;1561983;75;745;-58
2022/10/26 03:25:37;;;;;;;;;;;23.20;59.30;;;;;;1560716;75;1179;-58
2022/10/26 03:27:39;;;;;;;;;;;23.10;59.50;;;;;;1547347;75;816;-57
2022/10/26 03:29:41;;;;;;;;;;;23.10;59.50;;;;;;1556373;74;1601;-54
2022/10/26 03:31:42;;;;;;;;;;;23.20;59.60;;;;;;1563700;75;791;-58
2022/10/26 03:33:44;;;;;;;;;;;23.10;59.60;;;;;;1556070;75;810;-58
2022/10/26 03:35:46;;;;;;;;;;;23.10;59.70;;;;;;1566047;75;1930;-57
2022/10/26 03:37:48;;;;;;;;;;;23.10;59.70;;;;;;1549047;74;726;-58
2022/10/26 03:39:50;;;;;;;;;;;23.10;59.70;;;;;;1566113;75;744;-57
2022/10/26 03:41:52;;;;;;;;;;;23.10;59.70;;;;;;1556618;74;703;-57
2022/10/26 03:43:54;;;;;;;;;;;23.10;59.70;;;;;;1572724;74;1636;-55
2022/10/26 03:45:56;;;;;;;;;;;23.10;59.80;;;;;;1551990;75;1131;-56
2022/10/26 03:47:57;;;;;;;;;;;23.10;59.80;;;;;;1538731;75;684;-55
2022/10/26 03:49:59;;;;;;;;;;;23.10;59.90;;;;;;1562053;75;754;-57
2022/10/26 03:52:01;;;;;;;;;;;23.00;59.70;;;;;;1568441;74;790;-58
2022/10/26 03:54:03;;;;;;;;;;;23.10;60.00;;;;;;1564402;75;777;-57
2022/10/26 03:56:05;;;;;;;;;;;23.10;60.10;;;;;;1553001;75;1947;-58
2022/10/26 03:58:07;;;;;;;;;;;23.00;60.00;;;;;;1554413;75;1670;-58
2022/10/26 04:00:10;;;;;;;;;;;23.00;60.20;;;;;;1565255;75;1037;-57
2022/10/26 04:02:14;;;;;;;;;;;23.00;60.30;;;;;;1551976;75;872;-59
2022/10/26 04:04:15;;;;;;;;;;;22.90;60.30;;;;;;1551717;76;783;-58
2022/10/26 04:06:17;;;;;;;;;;;23.00;60.40;;;;;;1563499;75;1200;-58
2022/10/26 04:08:19;;;;;;;;;;;22.90;60.40;;;;;;1546155;75;825;-59
2022/10/26 04:10:21;;;;;;;;;;;23.00;60.50;;;;;;1562930;75;1529;-58
2022/10/26 04:12:23;;;;;;;;;;;23.00;60.40;;;;;;1550063;75;657;-58
2022/10/26 04:14:25;;;;;;;;;;;23.00;60.40;;;;;;1552201;76;720;-58
2022/10/26 04:16:27;;;;;;;;;;;22.90;60.40;;;;;;1560642;75;1920;-58
2022/10/26 04:18:29;;;;;;;;;;;23.00;60.40;;;;;;1551133;75;737;-57
2022/10/26 04:20:31;;;;;;;;;;;22.90;60.40;;;;;;1560572;75;727;-58
2022/10/26 04:22:33;;;;;;;;;;;23.00;60.40;;;;;;1534070;76;809;-58
2022/10/26 04:24:35;;;;;;;;;;;22.90;60.40;;;;;;1555904;74;1531;-58
2022/10/26 04:26:36;;;;;;;;;;;22.90;60.50;;;;;;1556305;74;1176;-58
2022/10/26 04:28:38;;;;;;;;;;;23.00;60.50;;;;;;1553450;75;755;-58
2022/10/26 04:30:40;;;;;;;;;;;22.90;60.50;;;;;;1564173;75;736;-58
2022/10/26 04:32:42;;;;;;;;;;;23.00;60.50;;;;;;1561808;76;780;-58
2022/10/26 04:34:44;;;;;;;;;;;22.90;60.60;;;;;;1550482;75;761;-57
2022/10/26 04:36:46;;;;;;;;;;;23.00;60.70;;;;;;1554355;75;1142;-58
2022/10/26 04:38:48;;;;;;;;;;;22.90;60.90;;;;;;1558666;75;1507;-58
2022/10/26 04:40:50;;;;;;;;;;;23.00;60.70;;;;;;1556330;75;750;-57
2022/10/26 04:42:52;;;;;;;;;;;23.00;60.60;;;;;;1568196;75;791;-57
2022/10/26 04:44:54;;;;;;;;;;;23.20;60.40;;;;;;1568315;75;763;-58
2022/10/26 04:46:56;;;;;;;;;;;23.20;60.10;;;;;;1563162;75;1132;-57
2022/10/26 04:48:57;;;;;;;;;;;23.30;60.10;;;;;;1565450;75;761;-57
2022/10/26 04:51:00;;;;;;;;;;;23.30;59.90;;;;;;1565828;75;738;-58
2022/10/26 04:53:01;;;;;;;;;;;23.30;59.80;;;;;;1550169;75;1583;-58
2022/10/26 04:55:08;;;;;;;;;;;23.40;59.80;;;;;;1554833;75;1936;-57
2022/10/26 04:57:07;;;;;;;;;;;23.40;59.50;;;;;;1563107;75;1533;-57
2022/10/26 04:59:09;;;;;;;;;;;23.40;59.40;;;;;;1556888;75;1091;-57
2022/10/26 05:01:11;;;;;;;;;;;23.40;59.40;;;;;;1557979;75;689;-57
2022/10/26 05:03:13;;;;;;;;;;;23.40;59.50;;;;;;1553584;76;696;-57
2022/10/26 05:05:14;;;;;;;;;;;23.50;59.60;;;;;;1540057;76;714;-57
2022/10/26 05:07:16;;;;;;;;;;;23.40;59.50;;;;;;1565572;74;1596;-57
2022/10/26 05:09:18;;;;;;;;;;;23.50;59.60;;;;;;1552295;75;813;-57
2022/10/26 05:11:20;;;;;;;;;;;23.50;59.40;;;;;;1560155;76;729;-59
2022/10/26 05:13:23;;;;;;;;;;;23.50;59.70;;;;;;1552083;75;699;-58
2022/10/26 05:15:25;;;;;;;;;;;23.30;59.90;;;;;;1556012;76;1943;-59
2022/10/26 05:17:26;;;;;;;;;;;23.30;59.90;;;;;;1560657;75;731;-58
2022/10/26 05:19:28;;;;;;;;;;;23.30;59.70;;;;;;1551325;76;747;-58
2022/10/26 05:21:30;;;;;;;;;;;23.30;59.50;;;;;;1550817;75;1578;-58
2022/10/26 05:23:32;;;;;;;;;;;23.40;59.40;;;;;;1558193;76;635;-58
2022/10/26 05:25:35;;;;;;;;;;;23.50;59.40;;;;;;1551918;75;1131;-59
2022/10/26 05:27:37;;;;;;;;;;;23.50;59.20;;;;;;1549364;76;879;-59
2022/10/26 05:29:39;;;;;;;;;;;23.50;59.10;;;;;;1560076;75;645;-59
2022/10/26 05:31:40;;;;;;;;;;;23.50;58.90;;;;;;1557566;76;747;-58
2022/10/26 05:33:42;;;;;;;;;;;23.50;59.60;;;;;;1557415;76;739;-61
2022/10/26 05:35:44;;;;;;;;;;;23.20;60.00;;;;;;1563597;76;1940;-59
2022/10/26 05:37:46;;;;;;;;;;;23.20;60.10;;;;;;1549398;75;710;-58
2022/10/26 05:39:48;;;;;;;;;;;23.20;60.20;;;;;;1549742;76;660;-59
2022/10/26 05:41:50;;;;;;;;;;;23.30;60.10;;;;;;1542431;75;823;-58
2022/10/26 05:43:52;;;;;;;;;;;23.40;59.70;;;;;;1554097;75;723;-57
2022/10/26 05:45:54;;;;;;;;;;;23.50;59.60;;;;;;1555074;76;1144;-59
2022/10/26 05:47:55;;;;;;;;;;;23.50;59.40;;;;;;1556864;76;746;-59
2022/10/26 05:49:57;;;;;;;;;;;23.50;59.40;;;;;;1561193;74;1604;-59
2022/10/26 05:51:59;;;;;;;;;;;23.50;59.20;;;;;;1555949;75;741;-58
2022/10/26 05:54:01;;;;;;;;;;;23.40;59.30;;;;;;1547307;76;789;-59
2022/10/26 05:56:03;;;;;;;;;;;23.40;59.30;;;;;;1555660;76;1952;-59
2022/10/26 05:58:07;;;;;;;;;;;23.40;59.50;;;;;;1559934;76;671;-59
2022/10/26 06:00:15;;;;;;;;;;;23.30;59.60;;;;;;1553982;76;1995;-58
2022/10/26 06:02:28;;;;;;;;;;;23.30;59.60;;;;;;1546664;74;725;-59
2022/10/26 06:04:36;;;;;;;;;;;23.20;59.60;;;;;;1562307;75;2090;-59
2022/10/26 06:06:44;;;;;;;;;;;23.20;59.70;;;;;;1558683;75;1627;-58
2022/10/26 06:08:46;;;;;;;;;;;23.10;59.80;;;;;;1557279;75;670;-59
2022/10/26 06:10:48;;;;;;;;;;;23.10;59.80;;;;;;1566478;75;736;-58
2022/10/26 06:12:50;;;;;;;;;;;23.20;59.90;;;;;;1556405;75;755;-59
2022/10/26 06:14:53;;;;;;;;;;;23.10;59.90;;;;;;1558924;75;810;-59
2022/10/26 06:17:03;;;;;;;;;;;23.20;59.80;;;;;;1553309;75;1920;-58
2022/10/26 06:19:15;;;;;;;;;;;23.10;59.30;;;;;;1555863;75;697;-58
2022/10/26 06:21:28;;;;;;;;;;;23.10;58.90;;;;;;1561949;75;1698;-60
2022/10/26 06:23:32;;;;;;;;;;;23.00;58.90;;;;;;1566718;75;1938;-58
2022/10/26 06:25:44;;;;;;;;;;;23.10;58.90;;;;;;1555553;75;1162;-58
2022/10/26 06:27:55;;;;;;;;;;;23.10;58.70;;;;;;1553806;76;1764;-58
2022/10/26 06:29:59;;;;;;;;;;;23.00;58.40;;;;;;1482205;79;1056;-57
2022/10/26 06:32:01;;;;;;;;;;;23.00;58.30;;;;;;1559777;74;1576;-57
2022/10/26 06:34:03;;;;;;;;;;;23.00;58.30;;;;;;1559929;74;781;-58
2022/10/26 06:36:06;;;;;;;;;;;23.00;58.20;;;;;;1551548;76;1945;-58
2022/10/26 06:38:10;;;;;;;;;;;23.00;58.00;;;;;;1539650;75;1704;-58
2022/10/26 06:40:13;;;;;;;;;;;23.00;57.90;;;;;;1555265;75;723;-58
2022/10/26 06:42:15;;;;;;;;;;;23.00;57.60;;;;;;1557029;75;706;-58
2022/10/26 06:44:23;;;;;;;;;;;23.10;57.50;;;;;;1553634;75;721;-58
2022/10/26 06:46:43;;;;;;;;;;;23.10;57.30;;;;;;1559324;75;1575;-59
2022/10/26 06:49:03;;;;;;;;;;;23.10;57.10;;;;;;1556594;75;691;-58
2022/10/26 06:51:05;;;;;;;;;;;23.10;56.90;;;;;;1559466;75;764;-58
2022/10/26 06:53:15;;;;;;;;;;;23.00;56.80;;;;;;1553652;75;654;-58
2022/10/26 06:55:17;;;;;;;;;;;23.10;56.90;;;;;;1556774;75;1915;-58
2022/10/26 06:57:19;;;;;;;;;;;23.00;56.60;;;;;;1566274;75;1952;-57
2022/10/26 06:59:25;;;;;;;;;;;23.10;56.60;;;;;;1561974;75;1559;-58
2022/10/26 07:01:27;;;;;;;;;;;23.10;56.40;;;;;;1533292;75;1097;-59
2022/10/26 07:03:29;;;;;;;;;;;23.10;56.20;;;;;;1533700;77;793;-58
2022/10/26 07:05:31;;;;;;;;;;;23.00;55.90;;;;;;1535492;76;1190;-58
2022/10/26 07:07:33;;;;;;;;;;;22.90;56.00;;;;;;1538043;77;713;-58
2022/10/26 07:09:35;;;;;;;;;;;23.00;56.30;;;;;;1535553;76;756;-58
2022/10/26 07:11:37;;;;;;;;;;;23.00;56.20;;;;;;1532662;77;720;-58
2022/10/26 07:13:39;;;;;;;;;;;23.00;56.10;;;;;;1532302;76;1446;-57
2022/10/26 07:15:42;;;;;;;;;;;23.00;55.90;;;;;;1537707;77;1947;-56
2022/10/26 07:17:44;;;;;;;;;;;23.10;55.80;;;;;;1538204;77;724;-57
2022/10/26 07:19:46;;;;;;;;;;;23.00;55.60;;;;;;1538206;77;664;-58
2022/10/26 07:21:48;;;;;;;;;;;23.00;55.60;;;;;;1537197;76;921;-58
2022/10/26 07:23:51;;;;;;;;;;;23.10;55.70;;;;;;1537785;77;722;-57
2022/10/26 07:25:53;;;;;;;;;;;23.00;55.50;;;;;;1537380;76;1160;-58
2022/10/26 07:27:58;;;;;;;;;;;23.00;55.50;;;;;;1534502;77;1570;-58
2022/10/26 07:30:00;;;;;;;;;;;23.10;55.50;;;;;;1535741;76;752;-58
2022/10/26 07:32:02;;;;;;;;;;;23.10;55.30;;;;;;1534123;77;739;-58
2022/10/26 07:34:04;;;;;;;;;;;23.00;55.20;;;;;;1534163;77;789;-58
2022/10/26 07:36:07;;;;;;;;;;;23.10;55.30;;;;;;1537249;76;1949;-57
2022/10/26 07:38:09;;;;;;;;;;;23.10;55.20;;;;;;1535815;76;859;-57
2022/10/26 07:40:11;;;;;;;;;;;23.00;55.00;;;;;;1533742;77;755;-54
2022/10/26 07:42:13;;;;;;;;;;;23.10;55.10;;;;;;1531314;76;1529;-58
2022/10/26 07:44:15;;;;;;;;;;;23.10;55.20;;;;;;1504436;78;809;-58
2022/10/26 07:46:17;;;;;;;;;;;23.10;55.10;;;;;;1531373;77;1096;-58
2022/10/26 07:48:19;;;;;;;;;;;23.10;55.10;;;;;;1538046;77;714;-57
2022/10/26 07:50:21;;;;;;;;;;;23.10;55.10;;;;;;1535591;76;772;-54
2022/10/26 07:52:23;;;;;;;;;;;23.10;55.10;;;;;;1536600;77;794;-58
2022/10/26 07:54:24;;;;;;;;;;;23.00;55.00;;;;;;1529711;77;768;-57
2022/10/26 07:56:27;;;;;;;;;;;23.00;55.10;;;;;;1529493;77;1939;-54
2022/10/26 07:58:29;;;;;;;;;;;23.10;55.20;;;;;;1536357;77;791;-58
2022/10/26 08:00:31;;;;;;;;;;;23.00;55.00;;;;;;1533785;76;1083;-58
2022/10/26 08:02:33;;;;;;;;;;;23.10;55.00;;;;;;1561729;76;773;-56
2022/10/26 08:04:35;;;;;;;;;;;23.00;54.90;;;;;;1552636;76;811;-54
2022/10/26 08:06:37;;;;;;;;;;;23.00;54.80;;;;;;1557375;76;1173;-58
2022/10/26 08:08:38;;;;;;;;;;;23.00;55.00;;;;;;1541121;75;738;-58
2022/10/26 08:10:44;;;;;;;;;;;23.10;55.50;;;;;;1550091;76;1581;-58
2022/10/26 08:12:45;;;;;;;;;;;23.00;55.30;;;;;;1552892;75;734;-56
2022/10/26 08:14:47;;;;;;;;;;;23.00;55.50;;;;;;1558622;76;796;-58
2022/10/26 08:16:51;;;;;;;;;;;23.00;55.60;;;;;;1552261;76;1944;-58
2022/10/26 08:18:53;;;;;;;;;;;22.90;55.70;;;;;;1549587;76;799;-58
2022/10/26 08:20:55;;;;;;;;;;;22.90;56.00;;;;;;1559067;76;759;-58
2022/10/26 08:22:57;;;;;;;;;;;22.90;55.90;;;;;;1558100;75;712;-56
2022/10/26 08:24:59;;;;;;;;;;;22.90;56.00;;;;;;1560156;75;1568;-56
2022/10/26 08:27:00;;;;;;;;;;;22.90;56.20;;;;;;1558937;76;1137;-54
2022/10/26 08:29:02;;;;;;;;;;;22.90;56.00;;;;;;1559659;75;738;-58
2022/10/26 08:31:04;;;;;;;;;;;22.90;56.00;;;;;;1542106;76;725;-58
2022/10/26 08:33:06;;;;;;;;;;;22.90;55.90;;;;;;1549248;76;798;-58
2022/10/26 08:35:09;;;;;;;;;;;23.00;55.90;;;;;;1541952;76;788;-58
2022/10/26 08:37:10;;;;;;;;;;;23.00;55.90;;;;;;1555866;75;1947;-58
2022/10/26 08:39:12;;;;;;;;;;;23.00;55.70;;;;;;1560779;74;1538;-58
2022/10/26 08:41:14;;;;;;;;;;;23.10;55.80;;;;;;1557761;76;656;-58
2022/10/26 08:43:18;;;;;;;;;;;23.10;55.60;;;;;;1560110;75;792;-58
2022/10/26 08:45:28;;;;;;;;;;;23.20;55.30;;;;;;1535588;76;1717;-58
2022/10/26 08:47:30;;;;;;;;;;;23.20;55.20;;;;;;1556549;76;758;-58
2022/10/26 08:49:34;;;;;;;;;;;23.20;55.20;;;;;;1557742;76;762;-58
2022/10/26 08:51:36;;;;;;;;;;;23.30;55.20;;;;;;1550609;75;2206;-58
2022/10/26 08:53:40;;;;;;;;;;;23.40;55.10;;;;;;1557743;76;804;-58
2022/10/26 08:55:49;;;;;;;;;;;23.40;55.10;;;;;;1558764;76;1129;-58
2022/10/26 08:57:51;;;;;;;;;;;23.50;55.20;;;;;;1552583;76;1935;-58
2022/10/26 08:59:54;;;;;;;;;;;23.50;55.10;;;;;;1530120;77;760;-59
2022/10/26 09:01:56;;;;;;;;;;;23.50;55.00;;;;;;1521041;77;1053;-58
2022/10/26 09:03:58;;;;;;;;;;;23.50;55.00;;;;;;1480587;79;734;-58
2022/10/26 09:06:02;;;;;;;;;;;23.50;54.90;;;;;;1479604;79;1602;-58
2022/10/26 09:08:23;;;;;;;;;;;23.50;55.00;;;;;;1511616;77;803;-58
2022/10/26 09:10:36;;;;;;;;;;;23.50;55.00;;;;;;1483936;79;741;-58
2022/10/26 09:12:42;;;;;;;;;;;23.60;55.00;;;;;;1503925;77;816;-58
2022/10/26 09:14:58;;;;;;;;;;;23.50;55.00;;;;;;1507047;78;1879;-58
2022/10/26 09:17:01;;;;;;;;;;;23.50;55.00;;;;;;1490771;78;1958;-59
2022/10/26 09:19:08;;;;;;;;;;;23.50;55.00;;;;;;1503114;78;726;-57
2022/10/26 09:21:11;;;;;;;;;;;23.50;55.00;;;;;;1495413;78;1522;-58
2022/10/26 09:23:33;;;;;;;;;;;23.50;55.10;;;;;;1465237;78;1092;-58
2022/10/26 09:25:36;;;;;;;;;;;23.50;55.10;;;;;;1492059;78;1917;-58
2022/10/26 09:27:43;;;;;;;;;;;23.60;55.20;;;;;;1489265;78;1980;-58
2022/10/26 09:29:45;;;;;;;;;;;23.60;55.20;;;;;;1488669;78;843;-58
2022/10/26 09:31:48;;;;;;;;;;;23.50;55.40;;;;;;1492039;78;730;-58
2022/10/26 09:33:50;;;;;;;;;;;23.50;55.50;;;;;;1497672;78;1524;-58
2022/10/26 09:36:01;;;;;;;;;;;23.50;55.50;;;;;;1486095;78;1121;-57
2022/10/26 09:38:05;;;;;;;;;;;23.50;55.60;;;;;;1498454;78;1941;-58
2022/10/26 09:40:26;;;;;;;;;;;23.50;55.50;;;;;;1488730;78;728;-58
2022/10/26 09:42:30;;;;;;;;;;;23.50;55.40;;;;;;1439682;81;1083;-57
2022/10/26 09:44:36;;;;;;;;;;;23.50;55.10;;;;;;1438118;81;2143;-58
2022/10/26 09:46:39;;;;;;;;;;;23.60;55.00;;;;;;1434628;81;1144;-58
2022/10/26 09:48:43;;;;;;;;;;;23.60;54.80;;;;;;1485279;78;1860;-58
2022/10/26 09:50:46;;;;;;;;;;;23.60;54.60;;;;;;1488559;78;729;-58
2022/10/26 09:52:48;;;;;;;;;;;23.70;54.70;;;;;;1506257;78;731;-58
2022/10/26 09:54:50;;;;;;;;;;;23.60;54.40;;;;;;1496383;78;957;-58
2022/10/26 09:56:53;;;;;;;;;;;23.70;54.40;;;;;;1487875;78;1958;-58
2022/10/26 09:59:00;;;;;;;;;;;23.80;54.20;;;;;;1495370;78;800;-57
2022/10/26 10:01:02;;;;;;;;;;;23.60;53.90;;;;;;1489094;78;1404;-58
2022/10/26 10:03:05;;;;;;;;;;;23.70;54.00;;;;;;1523945;77;1529;-58
2022/10/26 10:05:25;;;;;;;;;;;23.70;54.10;;;;;;1506286;77;1216;-58
2022/10/26 10:07:27;;;;;;;;;;;23.70;53.90;;;;;;1529053;77;811;-57
2022/10/26 10:09:29;;;;;;;;;;;23.70;54.00;;;;;;1509542;78;785;-58
2022/10/26 10:11:39;;;;;;;;;;;23.70;53.80;;;;;;1510722;78;835;-57
2022/10/26 10:13:44;;;;;;;;;;;23.60;53.90;;;;;;1506382;78;1930;-58
2022/10/26 10:15:53;;;;;;;;;;;23.60;53.90;;;;;;1511194;77;1145;-58
2022/10/26 10:17:55;;;;;;;;;;;23.60;54.00;;;;;;1497925;79;1931;-58
2022/10/26 10:19:58;;;;;;;;;;;23.50;54.00;;;;;;1517605;78;798;-58
2022/10/26 10:22:01;;;;;;;;;;;23.50;54.00;;;;;;1514889;78;1869;-58
2022/10/26 10:24:03;;;;;;;;;;;23.50;54.00;;;;;;1510028;77;714;-58
2022/10/26 10:26:13;;;;;;;;;;;23.50;54.00;;;;;;1486318;79;1133;-58
2022/10/26 10:28:21;;;;;;;;;;;23.60;54.00;;;;;;1516298;77;1699;-58
2022/10/26 10:30:25;;;;;;;;;;;23.50;54.00;;;;;;1502267;77;1385;-58
2022/10/26 10:32:33;;;;;;;;;;;23.50;53.90;;;;;;1507793;77;2133;-58
2022/10/26 10:34:32;;;;;;;;;;;23.60;53.90;;;;;;1522762;78;1838;-59
2022/10/26 10:36:34;;;;;;;;;;;23.50;54.00;;;;;;1523525;77;1169;-57
2022/10/26 10:38:39;;;;;;;;;;;23.60;53.90;;;;;;1500650;78;1921;-57
2022/10/26 10:40:41;;;;;;;;;;;23.50;53.90;;;;;;1496915;78;812;-57
2022/10/26 10:42:43;;;;;;;;;;;23.50;53.90;;;;;;1480281;79;751;-57
2022/10/26 10:44:45;;;;;;;;;;;23.60;54.00;;;;;;1510001;77;1215;-58
2022/10/26 10:46:47;;;;;;;;;;;23.50;53.90;;;;;;1527462;77;1168;-57
2022/10/26 10:48:50;;;;;;;;;;;23.50;53.90;;;;;;1529298;77;739;-58
2022/10/26 10:50:56;;;;;;;;;;;23.50;53.90;;;;;;1534658;76;662;-57
2022/10/26 10:53:18;;;;;;;;;;;23.50;53.90;;;;;;1535935;77;751;-58
2022/10/26 10:55:20;;;;;;;;;;;23.50;54.20;;;;;;1524120;77;739;-56
2022/10/26 10:57:33;;;;;;;;;;;23.40;54.10;;;;;;1533332;77;1972;-57
2022/10/26 10:59:42;;;;;;;;;;;23.40;54.10;;;;;;1500483;78;1643;-56
2022/10/26 11:02:04;;;;;;;;;;;23.40;54.00;;;;;;1505259;78;1971;-58
2022/10/26 11:04:10;;;;;;;;;;;23.50;54.10;;;;;;1512362;78;1036;-57
2022/10/26 11:06:13;;;;;;;;;;;23.40;53.90;;;;;;1509468;78;1891;-57
2022/10/26 11:08:22;;;;;;;;;;;23.40;53.90;;;;;;1500382;78;718;-54
2022/10/26 11:10:25;;;;;;;;;;;23.50;54.00;;;;;;1490453;79;1738;-57
2022/10/26 11:12:31;;;;;;;;;;;23.50;53.90;;;;;;1492352;78;1527;-58
2022/10/26 11:14:40;;;;;;;;;;;23.50;53.90;;;;;;1496988;78;723;-58
2022/10/26 11:16:43;;;;;;;;;;;23.50;53.90;;;;;;1507583;78;1140;-58
2022/10/26 11:18:46;;;;;;;;;;;23.40;53.90;;;;;;1493778;79;1938;-57
2022/10/26 11:20:56;;;;;;;;;;;23.40;53.90;;;;;;1495320;78;745;-54
2022/10/26 11:22:59;;;;;;;;;;;23.50;54.00;;;;;;1559273;76;950;-58
2022/10/26 11:25:09;;;;;;;;;;;23.50;53.90;;;;;;1541650;75;715;-58
2022/10/26 11:27:17;;;;;;;;;;;23.50;53.90;;;;;;1559012;74;1614;-55
2022/10/26 11:29:21;;;;;;;;;;;23.50;53.80;;;;;;1560775;75;835;-56
2022/10/26 11:31:27;;;;;;;;;;;23.50;53.60;;;;;;1559757;75;731;-57
2022/10/26 11:33:30;;;;;;;;;;;23.40;53.70;;;;;;1557549;76;686;-59
2022/10/26 11:35:34;;;;;;;;;;;23.40;53.80;;;;;;1557008;76;1125;-58
2022/10/26 11:37:45;;;;;;;;;;;23.40;53.90;;;;;;1556432;75;1925;-59
2022/10/26 11:39:49;;;;;;;;;;;23.40;53.90;;;;;;1558786;76;730;-58
2022/10/26 11:41:52;;;;;;;;;;;23.50;54.10;;;;;;1557289;75;1979;-55
2022/10/26 11:43:56;;;;;;;;;;;23.50;54.00;;;;;;1560918;76;757;-60
2022/10/26 11:46:02;;;;;;;;;;;23.60;54.00;;;;;;1565151;76;1165;-56
2022/10/26 11:48:09;;;;;;;;;;;23.50;54.00;;;;;;1563670;76;793;-55
2022/10/26 11:50:15;;;;;;;;;;;23.50;54.00;;;;;;1553209;76;783;-57
2022/10/26 11:52:34;;;;;;;;;;;23.50;54.00;;;;;;1549979;75;698;-60
2022/10/26 11:54:57;;;;;;;;;;;23.60;54.10;;;;;;1554384;76;1518;-58
2022/10/26 11:56:58;;;;;;;;;;;23.50;54.10;;;;;;1553317;76;1814;-60
2022/10/26 11:59:00;;;;;;;;;;;23.40;54.20;;;;;;1559215;76;1934;-59
2022/10/26 12:01:04;;;;;;;;;;;23.50;54.30;;;;;;1555105;75;825;-60
2022/10/26 12:03:10;;;;;;;;;;;23.50;54.30;;;;;;1559522;75;1107;-58
2022/10/26 12:05:17;;;;;;;;;;;23.50;54.30;;;;;;1566616;75;754;-55
2022/10/26 12:07:20;;;;;;;;;;;23.50;54.50;;;;;;1559930;75;1129;-58
2022/10/26 12:09:26;;;;;;;;;;;23.50;54.40;;;;;;1560116;74;1301;-57
2022/10/26 12:11:32;;;;;;;;;;;23.50;54.30;;;;;;1554205;75;760;-59
2022/10/26 12:13:48;;;;;;;;;;;23.50;54.30;;;;;;1552483;75;1696;-58
2022/10/26 12:16:00;;;;;;;;;;;23.40;54.30;;;;;;1559306;75;1153;-58
2022/10/26 12:18:04;;;;;;;;;;;23.50;54.50;;;;;;1552417;75;1914;-59